Ana Sayfa
METAR-TAF:

METAR-TAF

Havaalanları :

Sanford Regional Airport

Sanford, Maine, Amerika Birleşik Devletleri

Enlem: 43-24N, Boylam: 070-43W, yükseklik: 74 m

Güncel hava durumu gözlemi

Rapor saat 22:56 UTC de 53 dakika önce yapıldı.
Rüzgar batıdan 7 kt
Sıcaklık 3°C
Nem 70%
Basınç 1003 hPa
Görüş mesafesi: 16.1 km
4800 ft yükseklikte az bulutlu

METAR: KSFM 262256Z AUTO 26007KT 10SM FEW048 03/M02 A2962 RMK AO2 SLP036 T00331022 PNO $

Saat: 18:49 (23:49 UTC)


TAF: eksik

4.000'den fazla havaalanı için hava durumu gözlemleri ve tahminleri (METAR ve TAF raporları).

Kullanılabilir istasyonlar harita üzerinde sarı ve kırmızı noktalarla gösterilir.

İstasyonun adını görmek için fareyi noktanın üzerinde gezdirin.

Sonrasında hava gözlem ve tahminlerini görmek için tıklayın.

Haritayı değiştirmek için: yaklaştırmak için siyah artı işaretli yeşil düğmeye ve uzaklaştırmak için de eksi işaretli düğmeye hızla tıklayın; bitişik haritalar için yeşil okları kullanın.


METAR-TAF: